createdAt,value
2023-03-19T00:00:13.281Z,12.43
2023-03-19T00:02:03.977Z,12.4
2023-03-19T00:06:34.718Z,12.42
2023-03-19T00:11:35.160Z,12.42
2023-03-19T00:16:42.373Z,12.42
2023-03-19T00:21:41.669Z,12.42
2023-03-19T00:26:41.959Z,12.42
2023-03-19T00:31:40.236Z,12.4
2023-03-19T00:36:39.702Z,12.42
2023-03-19T00:41:39.095Z,12.42
2023-03-19T00:46:38.625Z,12.42
2023-03-19T00:51:37.709Z,12.41
2023-03-19T00:56:38.596Z,12.41
2023-03-19T01:00:56.443Z,12.42
2023-03-19T01:05:55.948Z,12.42
2023-03-19T01:10:55.493Z,12.42
2023-03-19T01:15:55.025Z,12.41
2023-03-19T01:20:54.324Z,12.41
2023-03-19T01:25:53.648Z,12.41
2023-03-19T01:30:54.105Z,12.41
2023-03-19T01:35:53.015Z,12.41
2023-03-19T01:40:54.693Z,12.41
2023-03-19T01:45:51.478Z,12.41
2023-03-19T01:50:50.504Z,12.41
2023-03-19T01:55:50.415Z,12.41
2023-03-19T02:05:34.219Z,12.4
2023-03-19T02:10:35.865Z,12.4
2023-03-19T02:15:45.393Z,12.4
2023-03-19T02:20:35.827Z,12.4
2023-03-19T02:25:44.076Z,12.4
2023-03-19T02:30:51.041Z,12.4
2023-03-19T02:35:44.653Z,12.4
2023-03-19T02:40:42.149Z,12.4
2023-03-19T02:45:42.075Z,12.39
2023-03-19T02:50:41.399Z,12.39
2023-03-19T02:55:39.708Z,12.39
2023-03-19T03:00:39.324Z,12.39
2023-03-19T03:05:38.352Z,12.39
2023-03-19T03:12:47.928Z,12.39
2023-03-19T03:15:37.515Z,12.39
2023-03-19T03:20:36.991Z,12.39
2023-03-19T03:25:27.669Z,12.4
2023-03-19T03:30:23.494Z,12.4
2023-03-19T03:35:23.429Z,12.4
2023-03-19T03:40:23.007Z,12.4
2023-03-19T03:45:23.631Z,12.4
2023-03-19T03:50:20.623Z,12.4
2023-03-19T03:55:21.520Z,12.39
2023-03-19T04:00:19.513Z,12.39
2023-03-19T04:02:06.276Z,12.36
2023-03-19T04:06:38.902Z,12.38
2023-03-19T04:11:50.994Z,12.38
2023-03-19T04:16:39.268Z,12.38
2023-03-19T04:21:38.724Z,12.38
2023-03-19T04:26:37.668Z,12.38
2023-03-19T04:31:39.373Z,12.37
2023-03-19T04:36:37.262Z,12.38
2023-03-19T04:41:38.408Z,12.38
2023-03-19T04:46:35.818Z,12.38
2023-03-19T04:51:35.758Z,12.38
2023-03-19T04:56:34.270Z,12.37
2023-03-19T05:00:42.765Z,12.37
2023-03-19T05:05:40.621Z,12.37
2023-03-19T05:10:39.848Z,12.37
2023-03-19T05:15:39.890Z,12.37
2023-03-19T05:20:38.848Z,12.37
2023-03-19T05:25:38.461Z,12.37
2023-03-19T05:30:38.231Z,12.37
2023-03-19T05:35:38.074Z,12.37
2023-03-19T05:40:37.734Z,12.37
2023-03-19T05:45:35.670Z,12.36
2023-03-19T05:50:35.932Z,12.36
2023-03-19T05:55:34.580Z,12.36
2023-03-19T06:05:33.821Z,12.36
2023-03-19T06:10:34.059Z,12.36
2023-03-19T06:15:34.043Z,12.36
2023-03-19T06:20:43.358Z,12.36
2023-03-19T06:25:42.815Z,12.36
2023-03-19T06:30:43.021Z,12.38
2023-03-19T06:35:42.806Z,12.38
2023-03-19T06:40:44.121Z,12.4
2023-03-19T06:45:40.766Z,12.39
2023-03-19T06:50:40.329Z,12.4
2023-03-19T06:55:42.488Z,12.4
2023-03-19T07:00:38.850Z,12.42
2023-03-19T07:05:38.850Z,12.42
2023-03-19T07:10:38.585Z,12.43
2023-03-19T07:15:37.733Z,12.47
2023-03-19T07:20:37.590Z,12.42
2023-03-19T07:25:38.993Z,12.4
2023-03-19T07:30:26.061Z,12.42
2023-03-19T07:35:26.768Z,12.45
2023-03-19T07:40:26.363Z,12.49
2023-03-19T07:45:26.206Z,12.58
2023-03-19T07:50:38.494Z,12.63
2023-03-19T07:55:23.026Z,12.79
2023-03-19T08:00:23.107Z,12.84
2023-03-19T08:02:09.608Z,12.82
2023-03-19T08:06:44.135Z,12.86
2023-03-19T08:11:44.514Z,12.92
2023-03-19T08:16:43.960Z,13.15
2023-03-19T08:21:43.461Z,13.27
2023-03-19T08:26:45.168Z,13.37
2023-03-19T08:31:42.618Z,13.4
2023-03-19T08:36:42.681Z,13.43
2023-03-19T08:41:42.355Z,13.13
2023-03-19T08:46:42.973Z,13.41
2023-03-19T08:51:41.292Z,13.46
2023-03-19T08:56:41.163Z,13.01
2023-03-19T09:00:58.948Z,13.26
2023-03-19T09:06:01.509Z,13.18
2023-03-19T09:10:57.183Z,13.16
2023-03-19T09:15:56.992Z,13.46
2023-03-19T09:20:56.171Z,12.99
2023-03-19T09:25:56.325Z,13.02
2023-03-19T09:30:53.495Z,13.02
2023-03-19T09:35:53.937Z,13.08
2023-03-19T09:40:52.638Z,13.06
2023-03-19T09:45:52.462Z,13.23
2023-03-19T09:50:50.288Z,13.49
2023-03-19T09:55:49.787Z,13.16
2023-03-19T10:05:37.286Z,13.3
2023-03-19T10:10:38.560Z,13.38
2023-03-19T10:15:35.337Z,13.37
2023-03-19T10:20:37.286Z,13.62
2023-03-19T10:25:34.741Z,13.72
2023-03-19T10:30:43.861Z,13.13
2023-03-19T10:35:34.105Z,13.33
2023-03-19T10:40:44.443Z,13.44
2023-03-19T10:45:45.024Z,13.42
2023-03-19T10:50:41.602Z,13.26
2023-03-19T10:55:41.560Z,13.42
2023-03-19T11:00:43.954Z,13.37
2023-03-19T11:05:39.858Z,13.79
2023-03-19T11:10:39.308Z,13.65
2023-03-19T11:15:39.129Z,13.55
2023-03-19T11:20:37.731Z,13.66
2023-03-19T11:25:38.828Z,13.54
2023-03-19T11:30:53.739Z,13.07
2023-03-19T11:35:38.969Z,13.51
2023-03-19T11:40:25.948Z,13.2
2023-03-19T11:45:25.653Z,13.45
2023-03-19T11:50:25.351Z,13.2
2023-03-19T11:55:26.822Z,13.15
2023-03-19T12:00:40.676Z,13.49
2023-03-19T12:05:54.267Z,13.8
2023-03-19T12:10:24.637Z,13.57
2023-03-19T12:15:22.841Z,13.79
2023-03-19T12:20:22.856Z,13.12
2023-03-19T12:25:23.035Z,13.67
2023-03-19T12:30:22.548Z,13.13
2023-03-19T12:35:23.726Z,13.16
2023-03-19T12:40:19.637Z,13.04
2023-03-19T12:45:19.938Z,13.02
2023-03-19T12:50:18.703Z,13.09
2023-03-19T12:55:18.395Z,13.12
2023-03-19T13:00:16.374Z,13.07
2023-03-19T13:02:05.024Z,12.83
2023-03-19T13:26:35.098Z,12.79
2023-03-19T13:32:37.152Z,12.83
2023-03-19T13:36:35.506Z,12.84
2023-03-19T13:41:44.187Z,13.12
2023-03-19T13:46:43.612Z,13
2023-03-19T13:51:41.628Z,13.14
2023-03-19T13:56:57.872Z,12.89
2023-03-19T14:00:57.347Z,12.85
2023-03-19T14:05:54.727Z,12.89
2023-03-19T14:10:55.245Z,12.89
2023-03-19T14:15:53.381Z,12.91
2023-03-19T14:21:16.054Z,12.89
2023-03-19T14:26:31.997Z,12.88
2023-03-19T14:30:54.068Z,12.79
2023-03-19T14:35:52.782Z,12.8
2023-03-19T14:40:55.683Z,12.77
2023-03-19T14:45:56.547Z,12.73
2023-03-19T14:50:49.381Z,12.67
2023-03-19T14:55:49.589Z,12.67
2023-03-19T15:05:37.271Z,12.83
2023-03-19T15:10:37.603Z,12.81
2023-03-19T15:15:34.484Z,12.82
2023-03-19T15:20:44.101Z,13.69
2023-03-19T15:25:43.426Z,13.33
2023-03-19T15:31:57.454Z,13.17
2023-03-19T15:35:45.556Z,13.26
2023-03-19T15:40:45.222Z,12.85
2023-03-19T15:45:42.790Z,12.77
2023-03-19T15:50:43.882Z,12.75
2023-03-19T15:55:42.867Z,12.71
2023-03-19T16:00:40.623Z,12.63
2023-03-19T16:06:15.707Z,12.59
2023-03-19T16:10:39.080Z,12.58
2023-03-19T16:15:37.436Z,12.58
2023-03-19T16:20:26.366Z,12.58
2023-03-19T16:25:25.941Z,12.58
2023-03-19T16:30:25.714Z,12.57
2023-03-19T16:35:24.896Z,12.58
2023-03-19T16:40:23.912Z,12.6
2023-03-19T16:45:24.442Z,12.61
2023-03-19T16:50:21.191Z,12.63
2023-03-19T16:55:20.572Z,12.64
2023-03-19T17:00:20.285Z,12.64
2023-03-19T17:02:07.281Z,12.6
2023-03-19T17:06:41.518Z,12.61
2023-03-19T17:11:39.660Z,12.59
2023-03-19T17:16:39.566Z,12.57
2023-03-19T17:21:38.432Z,12.55
2023-03-19T17:26:37.932Z,12.54
2023-03-19T17:31:37.518Z,12.53
2023-03-19T17:36:36.985Z,12.54
2023-03-19T17:41:37.097Z,12.53
2023-03-19T17:46:36.415Z,12.53
2023-03-19T17:51:38.391Z,12.53
2023-03-19T17:56:34.084Z,12.53
2023-03-19T18:00:42.479Z,12.53
2023-03-19T18:05:40.384Z,12.52
2023-03-19T18:10:39.632Z,12.52
2023-03-19T18:15:37.360Z,12.52
2023-03-19T18:20:37.536Z,12.52
2023-03-19T18:25:36.775Z,12.51
2023-03-19T18:30:36.818Z,12.51
2023-03-19T18:35:35.439Z,12.51
2023-03-19T18:40:37.229Z,12.51
2023-03-19T18:45:35.281Z,12.51
2023-03-19T18:50:36.394Z,12.51
2023-03-19T18:55:43.472Z,12.5
2023-03-19T19:05:44.823Z,12.5
2023-03-19T19:10:41.981Z,12.5
2023-03-19T19:15:42.646Z,12.5
2023-03-19T19:20:45.492Z,12.5
2023-03-19T19:25:43.012Z,12.49
2023-03-19T19:30:40.564Z,12.49
2023-03-19T19:35:40.608Z,12.49
2023-03-19T19:40:40.838Z,12.49
2023-03-19T19:45:37.988Z,12.49
2023-03-19T19:50:47.254Z,12.49
2023-03-19T19:55:37.673Z,12.49
2023-03-19T20:00:26.509Z,12.5
2023-03-19T20:05:25.854Z,12.5
2023-03-19T20:10:26.277Z,12.5
2023-03-19T20:15:25.121Z,12.5
2023-03-19T20:20:24.112Z,12.5
2023-03-19T20:25:23.328Z,12.49
2023-03-19T20:30:22.774Z,12.49
2023-03-19T20:35:42.141Z,12.49
2023-03-19T20:40:21.585Z,12.49
2023-03-19T20:45:21.368Z,12.49
2023-03-19T20:50:20.808Z,12.49
2023-03-19T20:55:21.241Z,12.49
2023-03-19T21:00:18.539Z,12.49
2023-03-19T21:02:05.644Z,12.46
2023-03-19T21:06:51.950Z,12.48
2023-03-19T21:11:38.389Z,12.48
2023-03-19T21:16:38.648Z,12.47
2023-03-19T21:21:37.590Z,12.47
2023-03-19T21:26:37.941Z,12.47
2023-03-19T21:31:37.875Z,12.46
2023-03-19T21:36:38.967Z,12.47
2023-03-19T21:41:34.871Z,12.47
2023-03-19T21:46:49.136Z,12.47
2023-03-19T21:51:35.174Z,12.47
2023-03-19T21:56:34.665Z,12.47
2023-03-19T22:05:58.085Z,12.47
2023-03-19T22:10:57.105Z,12.47
2023-03-19T22:15:58.589Z,12.47
2023-03-19T22:20:55.102Z,12.47
2023-03-19T22:25:55.274Z,12.47
2023-03-19T22:30:54.343Z,12.47
2023-03-19T22:35:57.410Z,12.46
2023-03-19T22:40:51.690Z,12.47
2023-03-19T22:45:50.956Z,12.46
2023-03-19T22:50:49.936Z,12.46
2023-03-19T22:55:49.879Z,12.46
2023-03-19T23:00:36.920Z,12.46
2023-03-19T23:05:37.583Z,12.46
2023-03-19T23:10:36.477Z,12.45
2023-03-19T23:15:50.511Z,12.45
2023-03-19T23:20:36.948Z,12.45
2023-03-19T23:25:34.176Z,12.45
2023-03-19T23:30:43.949Z,12.45
2023-03-19T23:35:49.681Z,12.44
2023-03-19T23:40:41.977Z,12.45
2023-03-19T23:45:40.762Z,12.44
2023-03-19T23:50:41.174Z,12.44
2023-03-19T23:55:39.809Z,12.44
